createdAt,value
2018-12-10T00:27:28.313Z,2.27
2018-12-10T00:59:43.798Z,2.08
2018-12-10T01:08:31.597Z,2.62
2018-12-10T01:11:08.293Z,2.03
2018-12-10T01:14:06.668Z,1.20
2018-12-10T01:16:52.144Z,1.67
2018-12-10T01:20:10.036Z,1.63
2018-12-10T01:22:39.871Z,1.90
2018-12-10T01:39:18.798Z,2.30
2018-12-10T01:56:03.897Z,3.30
2018-12-10T02:05:30.867Z,2.17
2018-12-10T02:22:03.884Z,4.33
2018-12-10T02:33:07.444Z,3.03
2018-12-10T02:35:36.994Z,1.93
2018-12-10T02:38:06.134Z,1.70
2018-12-10T02:40:35.199Z,2.30
2018-12-10T02:43:05.213Z,1.70
2018-12-10T02:45:36.889Z,1.40
2018-12-10T02:48:07.227Z,1.63
2018-12-10T02:51:06.255Z,1.70
2018-12-10T02:53:35.451Z,4.33
2018-12-10T02:56:38.883Z,2.10
2018-12-10T02:59:10.189Z,1.97
2018-12-10T03:04:26.520Z,2.33
2018-12-10T03:06:58.507Z,1.50
2018-12-10T03:09:35.172Z,1.77
2018-12-10T03:12:12.699Z,1.73
2018-12-10T03:14:42.042Z,1.50
2018-12-10T03:17:12.243Z,1.97
2018-12-10T03:19:42.417Z,1.93
2018-12-10T03:22:16.466Z,1.97
2018-12-10T03:28:02.301Z,1.45
2018-12-10T03:30:33.251Z,2.13
2018-12-10T03:33:02.536Z,2.27
2018-12-10T03:35:36.576Z,1.90
2018-12-10T03:38:05.783Z,1.53
2018-12-10T03:40:35.186Z,1.87
2018-12-10T03:43:05.002Z,2.47
2018-12-10T03:45:34.672Z,1.40
2018-12-10T04:15:29.491Z,1.65
2018-12-10T04:21:04.538Z,2.15
2018-12-10T04:26:10.468Z,2.23
2018-12-10T04:28:53.795Z,2.10
2018-12-10T04:31:22.942Z,2.23
2018-12-10T04:34:04.455Z,2.87
2018-12-10T04:36:54.372Z,1.80
2018-12-10T04:39:25.839Z,1.93
2018-12-10T04:41:56.790Z,2.57
2018-12-10T04:44:50.750Z,2.17
2018-12-10T04:47:20.167Z,2.50
2018-12-10T04:49:57.369Z,2.33
2018-12-10T04:56:15.105Z,3.40
2018-12-10T05:05:14.168Z,3.10
2018-12-10T05:07:43.371Z,3.77
2018-12-10T05:10:32.097Z,3.50
2018-12-10T05:13:02.743Z,4.07
2018-12-10T05:15:32.097Z,2.90
2018-12-10T05:21:02.464Z,3.10
2018-12-10T05:26:13.543Z,3.33
2018-12-10T05:28:42.787Z,4.13
2018-12-10T05:31:18.298Z,2.57
2018-12-10T05:34:02.348Z,2.20
2018-12-10T05:36:39.201Z,2.47
2018-12-10T05:39:08.561Z,2.90
2018-12-10T05:42:08.619Z,3.70
2018-12-10T05:59:11.435Z,3.00
2018-12-10T06:07:39.439Z,3.20
2018-12-10T06:13:55.987Z,3.50
2018-12-10T06:16:25.308Z,3.53
2018-12-10T06:18:55.052Z,2.70
2018-12-10T06:24:37.303Z,4.37
2018-12-10T06:27:42.247Z,2.63
2018-12-10T06:33:17.364Z,2.83
2018-12-10T06:35:46.482Z,2.40
2018-12-10T06:38:15.830Z,3.30
2018-12-10T06:40:44.999Z,2.90
2018-12-10T06:43:14.232Z,2.60
2018-12-10T06:45:44.312Z,3.03
2018-12-10T06:48:13.391Z,2.93
2018-12-10T06:50:42.535Z,2.60
2018-12-10T06:53:12.210Z,2.90
2018-12-10T06:55:41.895Z,2.60
2018-12-10T06:58:11.085Z,1.83
2018-12-10T07:00:49.865Z,3.00
2018-12-10T07:03:19.067Z,2.60
2018-12-10T07:05:48.247Z,4.30
2018-12-10T07:16:23.992Z,2.20
2018-12-10T07:18:53.123Z,2.83
2018-12-10T07:21:22.932Z,2.63
2018-12-10T07:23:52.654Z,4.63
2018-12-10T07:26:21.889Z,2.50
2018-12-10T07:28:50.995Z,2.33
2018-12-10T07:31:20.325Z,3.00
2018-12-10T07:33:49.635Z,2.77
2018-12-10T07:36:18.745Z,2.57
2018-12-10T07:38:47.908Z,3.53
2018-12-10T07:41:17.576Z,3.17
2018-12-10T07:43:46.891Z,3.93
2018-12-10T07:46:16.887Z,3.37
2018-12-10T07:49:29.193Z,3.53
2018-12-10T07:51:58.327Z,5.27
2018-12-10T07:54:27.559Z,2.20
2018-12-10T07:56:56.685Z,2.00
2018-12-10T07:59:25.759Z,1.90
2018-12-10T08:01:55.021Z,2.37
2018-12-10T08:04:24.125Z,6.83
2018-12-10T08:06:53.334Z,3.10
2018-12-10T08:09:24.160Z,1.93
2018-12-10T08:11:59.850Z,2.60
2018-12-10T08:15:07.220Z,2.67
2018-12-10T08:17:40.949Z,3.07
2018-12-10T08:20:23.397Z,3.13
2018-12-10T08:22:52.909Z,3.70
2018-12-10T08:25:23.284Z,3.03
2018-12-10T08:27:52.559Z,3.47
2018-12-10T08:32:55.451Z,3.70
2018-12-10T08:35:29.953Z,3.60
2018-12-10T08:41:51.591Z,4.10
2018-12-10T08:44:20.731Z,4.80
2018-12-10T08:46:49.807Z,3.20
2018-12-10T08:49:19.446Z,4.40
2018-12-10T08:51:49.132Z,5.47
2018-12-10T08:55:09.845Z,4.83
2018-12-10T08:57:39.119Z,4.00
2018-12-10T09:00:09.614Z,3.87
2018-12-10T09:02:39.218Z,4.63
2018-12-10T09:05:08.752Z,4.63
2018-12-10T09:10:45.490Z,5.47
2018-12-10T09:13:14.855Z,3.27
2018-12-10T09:15:45.156Z,2.80
2018-12-10T09:18:14.394Z,2.30
2018-12-10T09:20:43.534Z,2.90
2018-12-10T09:23:13.449Z,2.93
2018-12-10T09:25:42.714Z,2.03
2018-12-10T09:28:19.316Z,2.70
2018-12-10T09:30:43.034Z,1.87
2018-12-10T09:33:12.381Z,1.90
2018-12-10T09:35:41.982Z,1.73
2018-12-10T09:41:19.700Z,1.60
2018-12-10T09:43:49.682Z,2.80
2018-12-10T09:49:25.955Z,2.67
2018-12-10T09:52:18.184Z,2.30
2018-12-10T09:54:48.551Z,2.63
2018-12-10T10:03:17.858Z,2.83
2018-12-10T10:05:47.100Z,2.70
2018-12-10T10:08:16.855Z,2.77
2018-12-10T10:10:45.919Z,2.30
2018-12-10T10:13:23.428Z,2.73
2018-12-10T10:16:29.227Z,2.80
2018-12-10T10:19:04.496Z,2.73
2018-12-10T10:21:35.551Z,3.03
2018-12-10T10:24:19.581Z,2.70
2018-12-10T10:26:53.250Z,2.90
2018-12-10T10:38:50.651Z,3.10
2018-12-10T10:56:29.052Z,0.90
2018-12-10T10:58:58.864Z,2.03
2018-12-10T11:01:33.757Z,1.77
2018-12-10T11:04:03.123Z,1.87
2018-12-10T11:06:54.298Z,1.60
2018-12-10T11:09:26.619Z,1.53
2018-12-10T11:11:59.263Z,1.17
2018-12-10T11:14:28.647Z,1.60
2018-12-10T11:17:00.679Z,1.97
2018-12-10T11:38:36.078Z,2.07
2018-12-10T11:41:06.194Z,1.30
2018-12-10T11:43:35.992Z,0.80
2018-12-10T11:46:06.738Z,0.97
2018-12-10T11:49:01.829Z,1.70
2018-12-10T11:51:41.258Z,1.10
2018-12-10T11:54:10.767Z,1.50
2018-12-10T11:56:40.870Z,0.73
2018-12-10T11:59:10.340Z,1.40
2018-12-10T12:01:39.505Z,1.90
2018-12-10T12:04:08.886Z,1.50
2018-12-10T12:06:38.284Z,3.60
2018-12-10T12:09:08.104Z,2.37
2018-12-10T12:11:38.893Z,1.90
2018-12-10T12:14:09.035Z,1.70
2018-12-10T12:16:39.013Z,1.53
2018-12-10T12:19:20.476Z,1.87
2018-12-10T12:27:58.947Z,1.50
2018-12-10T12:30:28.154Z,1.93
2018-12-10T12:32:57.287Z,1.77
2018-12-10T12:35:26.458Z,1.43
2018-12-10T12:37:55.535Z,1.70
2018-12-10T12:40:24.813Z,2.07
2018-12-10T12:42:53.905Z,0.90
2018-12-10T12:45:23.226Z,1.20
2018-12-10T12:47:52.475Z,1.70
2018-12-10T12:53:25.365Z,1.80
2018-12-10T12:55:54.485Z,1.53
2018-12-10T12:58:31.508Z,1.43
2018-12-10T13:01:20.698Z,1.80
2018-12-10T13:03:50.053Z,0.90
2018-12-10T13:06:45.674Z,0.97
2018-12-10T13:09:21.791Z,1.07
2018-12-10T13:11:46.117Z,1.77
2018-12-10T13:14:16.157Z,1.97
2018-12-10T13:16:49.373Z,1.20
2018-12-10T13:19:17.447Z,1.17
2018-12-10T13:21:46.582Z,1.00
2018-12-10T13:24:16.844Z,2.97
2018-12-10T13:26:45.945Z,1.73
2018-12-10T13:29:15.443Z,1.07
2018-12-10T13:31:44.712Z,1.27
2018-12-10T13:34:13.926Z,1.87
2018-12-10T13:36:45.640Z,1.73
2018-12-10T13:53:15.864Z,2.17
2018-12-10T13:58:24.129Z,1.77
2018-12-10T14:00:53.849Z,1.60
2018-12-10T14:03:23.302Z,2.00
2018-12-10T14:05:52.742Z,1.90
2018-12-10T14:08:21.834Z,1.83
2018-12-10T14:10:53.847Z,2.97
2018-12-10T14:44:04.160Z,1.20
2018-12-10T14:49:19.469Z,1.55
2018-12-10T14:51:48.584Z,1.20
2018-12-10T14:54:34.590Z,1.63
2018-12-10T14:57:07.150Z,0.60
2018-12-10T14:59:40.178Z,2.20
2018-12-10T15:02:19.600Z,1.63
2018-12-10T15:04:49.030Z,1.70
2018-12-10T15:07:18.239Z,1.67
2018-12-10T15:12:32.249Z,1.27
2018-12-10T15:15:03.467Z,2.07
2018-12-10T15:17:34.987Z,1.87
2018-12-10T15:23:06.932Z,1.60
2018-12-10T15:25:36.882Z,1.00
2018-12-10T15:28:07.044Z,1.43
2018-12-10T15:30:36.519Z,1.10
2018-12-10T15:33:06.548Z,1.57
2018-12-10T15:35:35.894Z,1.60
2018-12-10T15:38:05.184Z,1.50
2018-12-10T15:40:36.753Z,1.13
2018-12-10T15:43:07.909Z,0.80
2018-12-10T15:45:51.009Z,1.30
2018-12-10T15:48:44.053Z,1.40
2018-12-10T15:51:13.814Z,1.50
2018-12-10T15:54:06.716Z,1.47
2018-12-10T15:56:37.111Z,1.43
2018-12-10T15:59:06.366Z,1.33
2018-12-10T16:01:35.588Z,2.30
2018-12-10T16:04:04.823Z,1.77
2018-12-10T16:07:25.893Z,2.10
2018-12-10T16:09:55.118Z,2.50
2018-12-10T16:12:24.340Z,1.33
2018-12-10T16:14:54.842Z,2.60
2018-12-10T16:17:24.489Z,2.63
2018-12-10T16:20:17.975Z,2.63
2018-12-10T16:22:48.339Z,2.47
2018-12-10T16:25:17.746Z,3.70
2018-12-10T16:27:47.507Z,2.83
2018-12-10T16:30:17.614Z,2.83
2018-12-10T16:32:47.128Z,3.30
2018-12-10T16:35:16.222Z,3.10
2018-12-10T16:37:45.637Z,2.80
2018-12-10T16:41:06.948Z,3.80
2018-12-10T16:43:36.127Z,3.40
2018-12-10T16:46:29.891Z,2.43
2018-12-10T16:49:30.311Z,3.93
2018-12-10T16:55:28.892Z,2.80
2018-12-10T16:57:58.161Z,2.70
2018-12-10T17:00:28.191Z,3.93
2018-12-10T17:06:10.321Z,3.30
2018-12-10T17:08:39.393Z,3.30
2018-12-10T17:11:08.613Z,2.50
2018-12-10T17:13:38.480Z,1.77
2018-12-10T17:16:26.921Z,2.30
2018-12-10T17:18:57.299Z,2.40
2018-12-10T17:21:51.805Z,2.87
2018-12-10T17:24:27.373Z,4.20
2018-12-10T17:27:00.960Z,3.80
2018-12-10T17:29:31.364Z,2.10
2018-12-10T17:32:04.148Z,2.17
2018-12-10T17:34:34.635Z,2.27
2018-12-10T17:37:04.265Z,3.93
2018-12-10T17:39:34.908Z,2.23
2018-12-10T17:42:06.357Z,2.10
2018-12-10T17:44:35.731Z,3.30
2018-12-10T17:47:08.764Z,3.00
2018-12-10T17:49:39.026Z,2.17
2018-12-10T17:52:12.582Z,2.73
2018-12-10T17:54:46.355Z,2.20
2018-12-10T17:57:15.606Z,4.80
2018-12-10T17:59:44.870Z,2.53
2018-12-10T18:02:15.191Z,2.60
2018-12-10T18:04:44.742Z,3.33
2018-12-10T18:07:15.276Z,2.87
2018-12-10T18:09:45.320Z,2.83
2018-12-10T18:12:15.226Z,3.67
2018-12-10T18:14:44.749Z,3.90
2018-12-10T18:17:14.085Z,3.43
2018-12-10T18:19:43.418Z,4.73
2018-12-10T18:22:12.717Z,4.33
2018-12-10T18:24:41.993Z,3.70
2018-12-10T18:27:14.485Z,3.77
2018-12-10T18:29:50.269Z,4.20
2018-12-10T18:32:19.473Z,4.10
2018-12-10T18:34:48.644Z,3.80
2018-12-10T18:37:17.860Z,4.27
2018-12-10T18:39:47.166Z,4.10
2018-12-10T18:42:16.289Z,5.53
2018-12-10T18:44:45.543Z,3.13
2018-12-10T18:47:15.492Z,3.10
2018-12-10T18:49:46.560Z,3.50
2018-12-10T18:52:16.219Z,3.47
2018-12-10T18:54:45.463Z,3.57
2018-12-10T18:57:14.886Z,2.20
2018-12-10T18:59:44.963Z,2.70
2018-12-10T19:02:14.184Z,2.57
2018-12-10T19:04:43.790Z,2.43
2018-12-10T19:07:13.109Z,3.20
2018-12-10T19:09:42.828Z,3.87
2018-12-10T19:12:12.062Z,3.37
2018-12-10T19:14:41.234Z,3.03
2018-12-10T19:17:10.581Z,2.60
2018-12-10T19:19:39.848Z,2.40
2018-12-10T19:22:09.017Z,3.03
2018-12-10T19:24:38.319Z,3.00
2018-12-10T19:27:07.523Z,2.90
2018-12-10T19:29:36.729Z,2.00
2018-12-10T19:32:06.057Z,2.97
2018-12-10T19:34:35.369Z,4.00
2018-12-10T19:37:04.616Z,3.77
2018-12-10T19:39:33.794Z,2.80
2018-12-10T19:42:03.028Z,3.63
2018-12-10T19:44:32.332Z,3.57
2018-12-10T19:47:01.639Z,4.30
2018-12-10T19:49:30.988Z,2.50
2018-12-10T19:52:00.380Z,3.60
2018-12-10T19:54:29.702Z,3.40
2018-12-10T19:56:58.927Z,3.37
2018-12-10T19:59:28.552Z,2.40
2018-12-10T20:01:57.928Z,4.10
2018-12-10T20:04:27.426Z,4.17
2018-12-10T20:07:02.593Z,2.80
2018-12-10T20:09:31.730Z,3.97
2018-12-10T20:12:02.099Z,3.30
2018-12-10T20:14:31.497Z,3.60
2018-12-10T20:17:02.400Z,4.93
2018-12-10T20:19:32.836Z,3.33
2018-12-10T20:22:02.075Z,2.90
2018-12-10T20:24:32.231Z,3.40
2018-12-10T20:27:01.884Z,2.97
2018-12-10T20:29:31.176Z,4.77
2018-12-10T20:32:00.726Z,3.70
2018-12-10T20:34:32.534Z,3.97
2018-12-10T20:37:02.021Z,3.50
2018-12-10T20:39:31.612Z,2.60
2018-12-10T20:42:05.761Z,4.40
2018-12-10T20:44:35.587Z,4.73
2018-12-10T20:47:05.292Z,4.37
2018-12-10T20:49:35.100Z,3.37
2018-12-10T20:52:04.855Z,3.63
2018-12-10T20:57:15.451Z,3.52
2018-12-10T20:59:45.614Z,2.23
2018-12-10T21:02:14.954Z,2.90
2018-12-10T21:04:44.140Z,2.90
2018-12-10T21:07:13.628Z,3.30
2018-12-10T21:09:42.918Z,1.70
2018-12-10T21:12:12.301Z,3.07
2018-12-10T21:14:41.637Z,2.40
2018-12-10T21:17:10.962Z,5.40
2018-12-10T21:19:40.474Z,4.50
2018-12-10T21:22:10.140Z,4.47
2018-12-10T21:24:39.670Z,4.40
2018-12-10T21:27:10.478Z,4.03
2018-12-10T21:29:40.013Z,4.73
2018-12-10T21:32:09.437Z,5.20
2018-12-10T21:34:39.571Z,4.33
2018-12-10T21:37:09.121Z,4.90
2018-12-10T21:39:38.789Z,3.97
2018-12-10T21:42:08.563Z,5.63
2018-12-10T21:44:39.333Z,5.03
2018-12-10T21:47:10.089Z,3.80
2018-12-10T21:49:39.498Z,5.67
2018-12-10T21:52:09.683Z,4.60
2018-12-10T21:54:39.844Z,4.97
2018-12-10T21:57:09.273Z,3.93
2018-12-10T21:59:38.784Z,4.43
2018-12-10T22:02:08.253Z,4.23
2018-12-10T22:04:37.508Z,6.10
2018-12-10T22:07:06.818Z,8.00
2018-12-10T22:09:36.005Z,5.80
2018-12-10T22:12:05.407Z,3.80
2018-12-10T22:17:21.599Z,4.62
2018-12-10T22:19:51.235Z,4.90
2018-12-10T22:22:21.998Z,3.63
2018-12-10T22:24:51.700Z,5.20
2018-12-10T22:27:21.139Z,4.00
2018-12-10T22:29:50.659Z,5.07
2018-12-10T22:32:20.125Z,3.70
2018-12-10T22:34:49.457Z,4.07
2018-12-10T22:37:20.380Z,3.97
2018-12-10T22:39:50.129Z,4.43
2018-12-10T22:42:19.525Z,4.57
2018-12-10T22:44:48.713Z,4.27
2018-12-10T22:47:17.849Z,3.83
2018-12-10T22:49:49.240Z,4.80
2018-12-10T22:52:18.408Z,5.33
2018-12-10T22:54:47.583Z,6.23
2018-12-10T22:57:16.831Z,3.27
2018-12-10T22:59:52.035Z,4.70
2018-12-10T23:02:21.874Z,4.60
2018-12-10T23:04:51.437Z,4.00
2018-12-10T23:07:21.802Z,5.30
2018-12-10T23:10:06.521Z,6.37
2018-12-10T23:12:35.821Z,7.83
2018-12-10T23:15:05.682Z,4.17
2018-12-10T23:37:08.075Z,4.60
2018-12-10T23:39:42.382Z,3.93
2018-12-10T23:42:13.413Z,4.00
2018-12-10T23:44:48.123Z,4.50
2018-12-10T23:47:17.455Z,5.20
2018-12-10T23:49:47.351Z,4.47
2018-12-10T23:52:18.983Z,4.70
2018-12-10T23:54:49.018Z,4.63
2018-12-10T23:57:18.993Z,5.43
2018-12-10T23:59:49.361Z,5.97
